THA600 VTBS-VHHH
Flight info
| Callsign | THA600 |
|---|---|
| Flight time | 2h 2m |
| Altitude | 33000 |
| Route | SELKA A1 SANOT Y15 GUROK A202 SIKOU V571 CANTO |
| Aircraft | A346/H-SDE2E3FGHIJ3J4J5M1RWXY/LB1D1 |
Departure
| Time | 2026-05-06 11:59 |
|---|---|
| Airport | Suvarnabhumi Airport (VTBS) |
Arrival
| Time | 2026-05-06 14:02 |
|---|---|
| Airport | Hong Kong International Airport (VHHH) |
| Time | Latitude | Longitude | Altitude | Speed | Heading |
|---|---|---|---|---|---|
| 2026-05-06 11:43 | 13.68879 | 100.75277 | 21 ft | 0 kts | 104° |
| 2026-05-06 11:50 | 13.68880 | 100.75275 | 21 ft | 2 kts | 104° |
| 2026-05-06 11:50 | 13.68888 | 100.75250 | 25 ft | 4 kts | 118° |
| 2026-05-06 11:50 | 13.68903 | 100.75231 | 27 ft | 4 kts | 142° |
| 2026-05-06 11:51 | 13.68920 | 100.75222 | 27 ft | 4 kts | 176° |
| 2026-05-06 11:51 | 13.68932 | 100.75223 | 21 ft | 0 kts | 195° |
| 2026-05-06 11:53 | 13.68928 | 100.75222 | 21 ft | 2 kts | 195° |
| 2026-05-06 11:53 | 13.68904 | 100.75216 | 21 ft | 6 kts | 195° |
| 2026-05-06 11:54 | 13.68850 | 100.75201 | 21 ft | 11 kts | 195° |
| 2026-05-06 11:54 | 13.68763 | 100.75178 | 21 ft | 15 kts | 194° |
| 2026-05-06 11:54 | 13.68644 | 100.75148 | 21 ft | 19 kts | 184° |
| 2026-05-06 11:54 | 13.68559 | 100.75240 | 25 ft | 20 kts | 104° |
| 2026-05-06 11:55 | 13.68522 | 100.75389 | 21 ft | 22 kts | 104° |
| 2026-05-06 11:55 | 13.68482 | 100.75550 | 21 ft | 24 kts | 104° |
| 2026-05-06 11:55 | 13.68457 | 100.75687 | 22 ft | 16 kts | 74° |
| 2026-05-06 11:55 | 13.68554 | 100.75750 | 22 ft | 18 kts | 15° |
| 2026-05-06 11:56 | 13.68686 | 100.75786 | 22 ft | 21 kts | 14° |
| 2026-05-06 11:56 | 13.68834 | 100.75824 | 22 ft | 23 kts | 14° |
| 2026-05-06 11:56 | 13.68997 | 100.75867 | 22 ft | 25 kts | 14° |
| 2026-05-06 11:56 | 13.69163 | 100.75915 | 21 ft | 21 kts | 27° |
| 2026-05-06 11:57 | 13.69196 | 100.75970 | 21 ft | 0 kts | 90° |
| 2026-05-06 11:58 | 13.69196 | 100.75986 | 21 ft | 5 kts | 98° |
| 2026-05-06 11:58 | 13.69175 | 100.76043 | 20 ft | 12 kts | 126° |
| 2026-05-06 11:58 | 13.69093 | 100.76082 | 21 ft | 8 kts | 194° |
| 2026-05-06 11:58 | 13.69072 | 100.76077 | 21 ft | 17 kts | 192° |
| 2026-05-06 11:59 | 13.68711 | 100.75983 | 24 ft | 88 kts | 194° |
| 2026-05-06 11:59 | 13.67901 | 100.75770 | 20 ft | 149 kts | 194° |
| 2026-05-06 11:59 | 13.66744 | 100.75466 | 228 ft | 183 kts | 194° |
| 2026-05-06 11:59 | 13.65500 | 100.75140 | 913 ft | 185 kts | 194° |
| 2026-05-06 12:00 | 13.64223 | 100.75022 | 1673 ft | 186 kts | 175° |
| 2026-05-06 12:00 | 13.62934 | 100.75321 | 2308 ft | 195 kts | 152° |
| 2026-05-06 12:00 | 13.61858 | 100.76238 | 2687 ft | 209 kts | 133° |
| 2026-05-06 12:00 | 13.60874 | 100.77410 | 3007 ft | 225 kts | 130° |
| 2026-05-06 12:01 | 13.59908 | 100.78780 | 3298 ft | 247 kts | 112° |
| 2026-05-06 12:01 | 13.59730 | 100.80573 | 3680 ft | 264 kts | 77° |
| 2026-05-06 12:01 | 13.60499 | 100.82300 | 4359 ft | 269 kts | 56° |
| 2026-05-06 12:01 | 13.61579 | 100.83869 | 5164 ft | 269 kts | 56° |
| 2026-05-06 12:02 | 13.62672 | 100.85438 | 5955 ft | 272 kts | 55° |
| 2026-05-06 12:02 | 13.63784 | 100.87035 | 6626 ft | 277 kts | 55° |
| 2026-05-06 12:02 | 13.64915 | 100.88659 | 7330 ft | 281 kts | 55° |
| 2026-05-06 12:02 | 13.66058 | 100.90301 | 8053 ft | 284 kts | 56° |
| 2026-05-06 12:03 | 13.67213 | 100.91966 | 8786 ft | 287 kts | 55° |
| 2026-05-06 12:03 | 13.68384 | 100.93651 | 9523 ft | 291 kts | 56° |
| 2026-05-06 12:03 | 13.69569 | 100.95359 | 10195 ft | 296 kts | 55° |
| 2026-05-06 12:03 | 13.70789 | 100.97122 | 10608 ft | 311 kts | 55° |
| 2026-05-06 12:04 | 13.72080 | 100.98987 | 10910 ft | 328 kts | 55° |
| 2026-05-06 12:04 | 13.73442 | 101.00949 | 11211 ft | 345 kts | 55° |
| 2026-05-06 12:04 | 13.74871 | 101.03013 | 11502 ft | 362 kts | 55° |
| 2026-05-06 12:04 | 13.76371 | 101.05175 | 11784 ft | 379 kts | 55° |
| 2026-05-06 12:05 | 13.77921 | 101.07410 | 12241 ft | 388 kts | 54° |
| 2026-05-06 12:05 | 13.79493 | 101.09679 | 12914 ft | 391 kts | 54° |
| 2026-05-06 12:05 | 13.81077 | 101.11966 | 13636 ft | 393 kts | 54° |
| 2026-05-06 12:05 | 13.82673 | 101.14273 | 14230 ft | 397 kts | 54° |
| 2026-05-06 12:06 | 13.84282 | 101.16600 | 14790 ft | 400 kts | 54° |
| 2026-05-06 12:06 | 13.85901 | 101.18940 | 15380 ft | 403 kts | 54° |
| 2026-05-06 12:06 | 13.87536 | 101.21305 | 15954 ft | 407 kts | 54° |
| 2026-05-06 12:06 | 13.89186 | 101.23691 | 16514 ft | 410 kts | 54° |
| 2026-05-06 12:07 | 13.90848 | 101.26096 | 17066 ft | 414 kts | 54° |
| 2026-05-06 12:07 | 13.92525 | 101.28523 | 17611 ft | 417 kts | 54° |
| 2026-05-06 12:07 | 13.94208 | 101.30960 | 18136 ft | 420 kts | 54° |
| 2026-05-06 12:07 | 13.95912 | 101.33427 | 18589 ft | 424 kts | 54° |
| 2026-05-06 12:08 | 13.97630 | 101.35915 | 19009 ft | 428 kts | 54° |
| 2026-05-06 12:08 | 13.99363 | 101.38425 | 19442 ft | 431 kts | 54° |
| 2026-05-06 12:08 | 14.01108 | 101.40955 | 19905 ft | 434 kts | 54° |
| 2026-05-06 12:08 | 14.02863 | 101.43499 | 20339 ft | 437 kts | 54° |
| 2026-05-06 12:09 | 14.04605 | 101.46027 | 20774 ft | 440 kts | 54° |
| 2026-05-06 12:09 | 14.06384 | 101.48608 | 21204 ft | 443 kts | 54° |
| 2026-05-06 12:09 | 14.08177 | 101.51211 | 21621 ft | 446 kts | 54° |
| 2026-05-06 12:09 | 14.09978 | 101.53827 | 22057 ft | 449 kts | 54° |
| 2026-05-06 12:10 | 14.11792 | 101.56463 | 22466 ft | 452 kts | 54° |
| 2026-05-06 12:10 | 14.13616 | 101.59113 | 22876 ft | 455 kts | 54° |
| 2026-05-06 12:10 | 14.15453 | 101.61784 | 23273 ft | 458 kts | 54° |
| 2026-05-06 12:10 | 14.17304 | 101.64475 | 23619 ft | 461 kts | 54° |
| 2026-05-06 12:11 | 14.19164 | 101.67181 | 23935 ft | 463 kts | 54° |
| 2026-05-06 12:11 | 14.21033 | 101.69901 | 24276 ft | 466 kts | 54° |
| 2026-05-06 12:11 | 14.22909 | 101.72634 | 24623 ft | 468 kts | 54° |
| 2026-05-06 12:11 | 14.24794 | 101.75381 | 24953 ft | 470 kts | 54° |
| 2026-05-06 12:12 | 14.26689 | 101.78143 | 25290 ft | 473 kts | 54° |
| 2026-05-06 12:12 | 14.28594 | 101.80921 | 25603 ft | 475 kts | 54° |
| 2026-05-06 12:12 | 14.30509 | 101.83713 | 25900 ft | 478 kts | 54° |
| 2026-05-06 12:12 | 14.32335 | 101.86593 | 26202 ft | 481 kts | 58° |
| 2026-05-06 12:13 | 14.33943 | 101.89633 | 26520 ft | 484 kts | 63° |
| 2026-05-06 12:13 | 14.35311 | 101.92810 | 26840 ft | 486 kts | 68° |
| 2026-05-06 12:13 | 14.36485 | 101.96095 | 27148 ft | 489 kts | 70° |
| 2026-05-06 12:13 | 14.37620 | 101.99421 | 27453 ft | 491 kts | 70° |
| 2026-05-06 12:14 | 14.38749 | 102.02770 | 27754 ft | 494 kts | 70° |
| 2026-05-06 12:14 | 14.39881 | 102.06124 | 28040 ft | 496 kts | 70° |
| 2026-05-06 12:14 | 14.41021 | 102.09498 | 28341 ft | 498 kts | 70° |
| 2026-05-06 12:14 | 14.42166 | 102.12876 | 28749 ft | 498 kts | 70° |
| 2026-05-06 12:15 | 14.43310 | 102.16246 | 29229 ft | 496 kts | 70° |
| 2026-05-06 12:15 | 14.44063 | 102.18464 | 29539 ft | 495 kts | 70° |
| 2026-05-06 12:15 | 14.45205 | 102.21827 | 29967 ft | 494 kts | 70° |
| 2026-05-06 12:15 | 14.46725 | 102.26306 | 30436 ft | 494 kts | 70° |
| 2026-05-06 12:16 | 14.47476 | 102.28519 | 30675 ft | 493 kts | 70° |
| 2026-05-06 12:16 | 14.48610 | 102.31864 | 31038 ft | 493 kts | 70° |
| 2026-05-06 12:16 | 14.49743 | 102.35207 | 31397 ft | 492 kts | 70° |
| 2026-05-06 12:16 | 14.50874 | 102.38543 | 31770 ft | 492 kts | 70° |
| 2026-05-06 12:17 | 14.52005 | 102.41881 | 32134 ft | 491 kts | 70° |
| 2026-05-06 12:17 | 14.53131 | 102.45211 | 32535 ft | 490 kts | 70° |
| 2026-05-06 12:17 | 14.54254 | 102.48529 | 32815 ft | 490 kts | 70° |
| 2026-05-06 12:17 | 14.55379 | 102.51852 | 32844 ft | 489 kts | 70° |
| 2026-05-06 12:18 | 14.57624 | 102.58493 | 32856 ft | 489 kts | 70° |
| 2026-05-06 12:18 | 14.59866 | 102.65131 | 32849 ft | 489 kts | 70° |
| 2026-05-06 12:19 | 14.62107 | 102.71779 | 32851 ft | 490 kts | 70° |
| 2026-05-06 12:19 | 14.64351 | 102.78438 | 32848 ft | 490 kts | 70° |
| 2026-05-06 12:20 | 14.66593 | 102.85103 | 32847 ft | 491 kts | 70° |
| 2026-05-06 12:20 | 14.68832 | 102.91767 | 32845 ft | 491 kts | 70° |
| 2026-05-06 12:21 | 14.71070 | 102.98437 | 32845 ft | 491 kts | 70° |
| 2026-05-06 12:21 | 14.73306 | 103.05111 | 32845 ft | 491 kts | 70° |
| 2026-05-06 12:22 | 14.75542 | 103.11789 | 32848 ft | 491 kts | 70° |
| 2026-05-06 12:22 | 14.77757 | 103.18418 | 32848 ft | 491 kts | 70° |
| 2026-05-06 12:23 | 14.79986 | 103.25090 | 32849 ft | 491 kts | 70° |
| 2026-05-06 12:23 | 14.82216 | 103.31773 | 32849 ft | 491 kts | 70° |
| 2026-05-06 12:24 | 14.84778 | 103.38308 | 32845 ft | 490 kts | 64° |
| 2026-05-06 12:24 | 14.88038 | 103.44491 | 32846 ft | 489 kts | 57° |
| 2026-05-06 12:25 | 14.91963 | 103.50241 | 32846 ft | 488 kts | 51° |
| 2026-05-06 12:25 | 14.96344 | 103.55602 | 32844 ft | 487 kts | 49° |
| 2026-05-06 12:26 | 15.00760 | 103.60912 | 32844 ft | 487 kts | 49° |
| 2026-05-06 12:26 | 15.05168 | 103.66236 | 32844 ft | 487 kts | 49° |
| 2026-05-06 12:27 | 15.09610 | 103.71532 | 32840 ft | 487 kts | 46° |
| 2026-05-06 12:27 | 15.14561 | 103.76295 | 32842 ft | 486 kts | 38° |
| 2026-05-06 12:28 | 15.20105 | 103.80286 | 32839 ft | 485 kts | 30° |
| 2026-05-06 12:28 | 15.26126 | 103.83435 | 32840 ft | 485 kts | 22° |
| 2026-05-06 12:29 | 15.32338 | 103.86160 | 32838 ft | 485 kts | 22° |
| 2026-05-06 12:29 | 15.38570 | 103.88874 | 32840 ft | 486 kts | 22° |
| 2026-05-06 12:30 | 15.44803 | 103.91604 | 32843 ft | 486 kts | 22° |
| 2026-05-06 12:30 | 15.51031 | 103.94338 | 32843 ft | 486 kts | 22° |
| 2026-05-06 12:31 | 15.57256 | 103.97077 | 32845 ft | 486 kts | 22° |
| 2026-05-06 12:31 | 15.63488 | 103.99820 | 32843 ft | 486 kts | 22° |
| 2026-05-06 12:32 | 15.69716 | 104.02561 | 32844 ft | 486 kts | 22° |
| 2026-05-06 12:32 | 15.75944 | 104.05305 | 32846 ft | 486 kts | 22° |
| 2026-05-06 12:33 | 15.82182 | 104.08056 | 32843 ft | 486 kts | 22° |
| 2026-05-06 12:33 | 15.88413 | 104.10806 | 32849 ft | 486 kts | 22° |
| 2026-05-06 12:34 | 15.94649 | 104.13560 | 32849 ft | 487 kts | 22° |
| 2026-05-06 12:34 | 16.00703 | 104.16729 | 32848 ft | 489 kts | 31° |
| 2026-05-06 12:35 | 16.06152 | 104.20875 | 32855 ft | 490 kts | 40° |
| 2026-05-06 12:35 | 16.10938 | 104.26000 | 32854 ft | 492 kts | 50° |
| 2026-05-06 12:36 | 16.14986 | 104.31689 | 32860 ft | 492 kts | 54° |
| 2026-05-06 12:36 | 16.18957 | 104.37496 | 32859 ft | 492 kts | 54° |
| 2026-05-06 12:37 | 16.22928 | 104.43290 | 32859 ft | 492 kts | 54° |
| 2026-05-06 12:37 | 16.26926 | 104.49112 | 32862 ft | 493 kts | 53° |
| 2026-05-06 12:38 | 16.30915 | 104.54918 | 32867 ft | 493 kts | 53° |
| 2026-05-06 12:38 | 16.34907 | 104.60731 | 32875 ft | 493 kts | 54° |
| 2026-05-06 12:39 | 16.38895 | 104.66542 | 32886 ft | 493 kts | 53° |
| 2026-05-06 12:39 | 16.42884 | 104.72357 | 32893 ft | 493 kts | 54° |
| 2026-05-06 12:40 | 16.46867 | 104.78169 | 32899 ft | 493 kts | 54° |
| 2026-05-06 12:40 | 16.50853 | 104.83990 | 32899 ft | 493 kts | 54° |
| 2026-05-06 12:41 | 16.54844 | 104.89824 | 32893 ft | 494 kts | 54° |
| 2026-05-06 12:41 | 16.58840 | 104.95668 | 32885 ft | 495 kts | 54° |
| 2026-05-06 12:42 | 16.62829 | 105.01508 | 32871 ft | 495 kts | 54° |
| 2026-05-06 12:42 | 16.66821 | 105.07357 | 32868 ft | 495 kts | 54° |
| 2026-05-06 12:43 | 16.70813 | 105.13212 | 32870 ft | 495 kts | 54° |
| 2026-05-06 12:43 | 16.74800 | 105.19063 | 32871 ft | 495 kts | 54° |
| 2026-05-06 12:44 | 16.78790 | 105.24923 | 32868 ft | 495 kts | 54° |
| 2026-05-06 12:44 | 16.82779 | 105.30788 | 32868 ft | 495 kts | 54° |
| 2026-05-06 12:45 | 16.86775 | 105.36669 | 32870 ft | 497 kts | 54° |
| 2026-05-06 12:46 | 16.92786 | 105.45520 | 32868 ft | 497 kts | 54° |
| 2026-05-06 12:46 | 16.96786 | 105.51417 | 32875 ft | 497 kts | 54° |
| 2026-05-06 12:47 | 17.00789 | 105.57324 | 32874 ft | 497 kts | 54° |
| 2026-05-06 12:47 | 17.04787 | 105.63229 | 32873 ft | 497 kts | 54° |
| 2026-05-06 12:48 | 17.08780 | 105.69132 | 32884 ft | 497 kts | 54° |
| 2026-05-06 12:48 | 17.12773 | 105.75041 | 32888 ft | 497 kts | 53° |
| 2026-05-06 12:49 | 17.16763 | 105.80951 | 32895 ft | 497 kts | 53° |
| 2026-05-06 12:49 | 17.20762 | 105.86876 | 32895 ft | 498 kts | 53° |
| 2026-05-06 12:50 | 17.24759 | 105.92804 | 32916 ft | 503 kts | 53° |
| 2026-05-06 12:50 | 17.28862 | 105.98892 | 32915 ft | 518 kts | 53° |
| 2026-05-06 12:51 | 17.33018 | 106.05069 | 32911 ft | 520 kts | 53° |
| 2026-05-06 12:51 | 17.37182 | 106.11263 | 32911 ft | 520 kts | 53° |
| 2026-05-06 12:52 | 17.41319 | 106.17423 | 32911 ft | 520 kts | 53° |
| 2026-05-06 12:52 | 17.45508 | 106.23665 | 32911 ft | 520 kts | 53° |
| 2026-05-06 12:53 | 17.49670 | 106.29873 | 32903 ft | 520 kts | 53° |
| 2026-05-06 12:53 | 17.53832 | 106.36085 | 32895 ft | 520 kts | 53° |
| 2026-05-06 12:54 | 17.57984 | 106.42291 | 32901 ft | 520 kts | 53° |
| 2026-05-06 12:54 | 17.62110 | 106.48461 | 32892 ft | 520 kts | 53° |
| 2026-05-06 12:55 | 17.66265 | 106.54678 | 32889 ft | 520 kts | 53° |
| 2026-05-06 12:55 | 17.70415 | 106.60897 | 32889 ft | 520 kts | 53° |
| 2026-05-06 12:56 | 17.74566 | 106.67123 | 32885 ft | 520 kts | 53° |
| 2026-05-06 12:56 | 17.78708 | 106.73342 | 32884 ft | 519 kts | 53° |
| 2026-05-06 12:57 | 17.82838 | 106.79547 | 32884 ft | 518 kts | 53° |
| 2026-05-06 12:57 | 17.86970 | 106.85760 | 32884 ft | 518 kts | 53° |
| 2026-05-06 12:58 | 17.91095 | 106.91969 | 32882 ft | 518 kts | 53° |
| 2026-05-06 12:58 | 17.95224 | 106.98191 | 32881 ft | 518 kts | 53° |
| 2026-05-06 12:59 | 17.99341 | 107.04401 | 32882 ft | 518 kts | 53° |
| 2026-05-06 12:59 | 18.03472 | 107.10637 | 32881 ft | 518 kts | 53° |
| 2026-05-06 13:00 | 18.07592 | 107.16862 | 32884 ft | 518 kts | 53° |
| 2026-05-06 13:00 | 18.11014 | 107.22038 | 32887 ft | 518 kts | 53° |
| 2026-05-06 13:01 | 18.15133 | 107.28273 | 32967 ft | 518 kts | 53° |
| 2026-05-06 13:01 | 18.17853 | 107.32393 | 32979 ft | 518 kts | 53° |
| 2026-05-06 13:02 | 18.28073 | 107.47900 | 32987 ft | 518 kts | 53° |
| 2026-05-06 13:03 | 18.32180 | 107.54143 | 32980 ft | 518 kts | 53° |
| 2026-05-06 13:03 | 18.36291 | 107.60396 | 32980 ft | 518 kts | 53° |
| 2026-05-06 13:04 | 18.40395 | 107.66645 | 32998 ft | 518 kts | 53° |
| 2026-05-06 13:04 | 18.43829 | 107.71878 | 32984 ft | 518 kts | 53° |
| 2026-05-06 13:05 | 18.47898 | 107.78085 | 33003 ft | 518 kts | 53° |
| 2026-05-06 13:05 | 18.52050 | 107.84351 | 32982 ft | 517 kts | 51° |
| 2026-05-06 13:06 | 18.56501 | 107.90226 | 33005 ft | 516 kts | 49° |
| 2026-05-06 13:06 | 18.60919 | 107.96209 | 32994 ft | 517 kts | 51° |
| 2026-05-06 13:07 | 18.65300 | 108.02229 | 32996 ft | 517 kts | 51° |
| 2026-05-06 13:07 | 18.69689 | 108.08245 | 32996 ft | 517 kts | 50° |
| 2026-05-06 13:08 | 18.74082 | 108.14259 | 32997 ft | 517 kts | 50° |
| 2026-05-06 13:08 | 18.78475 | 108.20275 | 32992 ft | 517 kts | 50° |
| 2026-05-06 13:09 | 18.82867 | 108.26294 | 32992 ft | 517 kts | 50° |
| 2026-05-06 13:09 | 18.87256 | 108.32313 | 32993 ft | 517 kts | 50° |
| 2026-05-06 13:10 | 18.91648 | 108.38343 | 32992 ft | 518 kts | 50° |
| 2026-05-06 13:10 | 18.96031 | 108.44366 | 32992 ft | 518 kts | 51° |
| 2026-05-06 13:11 | 19.00418 | 108.50401 | 32992 ft | 517 kts | 51° |
| 2026-05-06 13:11 | 19.04782 | 108.56410 | 32992 ft | 517 kts | 51° |
| 2026-05-06 13:12 | 19.09187 | 108.62482 | 33001 ft | 517 kts | 51° |
| 2026-05-06 13:12 | 19.13556 | 108.68512 | 32998 ft | 517 kts | 51° |
| 2026-05-06 13:13 | 19.17960 | 108.74596 | 33000 ft | 518 kts | 51° |
| 2026-05-06 13:13 | 19.22339 | 108.80654 | 33001 ft | 517 kts | 51° |
| 2026-05-06 13:14 | 19.26723 | 108.86683 | 33003 ft | 516 kts | 49° |
| 2026-05-06 13:14 | 19.31264 | 108.92583 | 33003 ft | 516 kts | 49° |
| 2026-05-06 13:15 | 19.35827 | 108.98464 | 33005 ft | 516 kts | 49° |
| 2026-05-06 13:15 | 19.40377 | 109.04362 | 33005 ft | 516 kts | 49° |
| 2026-05-06 13:16 | 19.44912 | 109.10263 | 33004 ft | 517 kts | 49° |
| 2026-05-06 13:16 | 19.49458 | 109.16190 | 33007 ft | 517 kts | 49° |
| 2026-05-06 13:17 | 19.53996 | 109.22111 | 33004 ft | 517 kts | 49° |
| 2026-05-06 13:17 | 19.58532 | 109.28035 | 33003 ft | 517 kts | 49° |
| 2026-05-06 13:18 | 19.63068 | 109.33966 | 33005 ft | 517 kts | 49° |
| 2026-05-06 13:18 | 19.67603 | 109.39901 | 33005 ft | 517 kts | 49° |
| 2026-05-06 13:19 | 19.72131 | 109.45834 | 33006 ft | 517 kts | 49° |
| 2026-05-06 13:19 | 19.76668 | 109.51788 | 33006 ft | 518 kts | 49° |
| 2026-05-06 13:20 | 19.81203 | 109.57739 | 33008 ft | 518 kts | 49° |
| 2026-05-06 13:20 | 19.85733 | 109.63691 | 33009 ft | 518 kts | 49° |
| 2026-05-06 13:21 | 19.90259 | 109.69645 | 33014 ft | 518 kts | 49° |
| 2026-05-06 13:21 | 19.94765 | 109.75579 | 33014 ft | 518 kts | 49° |
| 2026-05-06 13:22 | 19.99295 | 109.81549 | 33024 ft | 518 kts | 49° |
| 2026-05-06 13:22 | 20.03787 | 109.87482 | 33018 ft | 518 kts | 49° |
| 2026-05-06 13:23 | 20.08311 | 109.93454 | 33022 ft | 517 kts | 49° |
| 2026-05-06 13:23 | 20.12817 | 109.99410 | 33025 ft | 517 kts | 49° |
| 2026-05-06 13:24 | 20.17327 | 110.05380 | 33023 ft | 517 kts | 49° |
| 2026-05-06 13:24 | 20.21843 | 110.11363 | 33028 ft | 517 kts | 49° |
| 2026-05-06 13:25 | 20.26353 | 110.17343 | 33027 ft | 518 kts | 49° |
| 2026-05-06 13:25 | 20.30870 | 110.23345 | 33029 ft | 519 kts | 48° |
| 2026-05-06 13:26 | 20.35389 | 110.29350 | 33034 ft | 519 kts | 48° |
| 2026-05-06 13:26 | 20.39900 | 110.35353 | 33036 ft | 519 kts | 48° |
| 2026-05-06 13:27 | 20.44377 | 110.41348 | 33037 ft | 519 kts | 50° |
| 2026-05-06 13:27 | 20.48475 | 110.47708 | 33041 ft | 522 kts | 56° |
| 2026-05-06 13:28 | 20.51945 | 110.54551 | 33036 ft | 525 kts | 62° |
| 2026-05-06 13:28 | 20.54727 | 110.61783 | 33037 ft | 527 kts | 68° |
| 2026-05-06 13:29 | 20.57216 | 110.69162 | 33033 ft | 528 kts | 68° |
| 2026-05-06 13:29 | 20.59696 | 110.76548 | 33033 ft | 528 kts | 68° |
| 2026-05-06 13:30 | 20.62086 | 110.83632 | 33035 ft | 528 kts | 68° |
| 2026-05-06 13:30 | 20.64578 | 110.91016 | 33045 ft | 528 kts | 68° |
| 2026-05-06 13:31 | 20.67054 | 110.98363 | 33042 ft | 528 kts | 68° |
| 2026-05-06 13:31 | 20.69550 | 111.05780 | 33047 ft | 528 kts | 68° |
| 2026-05-06 13:32 | 20.72033 | 111.13171 | 33044 ft | 528 kts | 68° |
| 2026-05-06 13:32 | 20.74498 | 111.20513 | 33040 ft | 528 kts | 68° |
| 2026-05-06 13:33 | 20.76975 | 111.27911 | 33049 ft | 528 kts | 68° |
| 2026-05-06 13:33 | 20.79449 | 111.35311 | 32978 ft | 528 kts | 68° |
| 2026-05-06 13:34 | 20.81913 | 111.42696 | 32959 ft | 527 kts | 68° |
| 2026-05-06 13:34 | 20.84379 | 111.50095 | 32952 ft | 528 kts | 68° |
| 2026-05-06 13:35 | 20.86875 | 111.57488 | 32950 ft | 528 kts | 68° |
| 2026-05-06 13:35 | 20.89381 | 111.64883 | 32950 ft | 528 kts | 68° |
| 2026-05-06 13:36 | 20.91876 | 111.72272 | 32947 ft | 528 kts | 68° |
| 2026-05-06 13:36 | 20.94371 | 111.79679 | 32954 ft | 528 kts | 68° |
| 2026-05-06 13:37 | 20.96855 | 111.87067 | 32950 ft | 526 kts | 68° |
| 2026-05-06 13:37 | 20.99330 | 111.94445 | 32953 ft | 527 kts | 68° |
| 2026-05-06 13:38 | 21.01814 | 112.01857 | 32956 ft | 528 kts | 68° |
| 2026-05-06 13:38 | 21.04296 | 112.09280 | 32956 ft | 529 kts | 68° |
| 2026-05-06 13:39 | 21.06773 | 112.16697 | 32957 ft | 528 kts | 68° |
| 2026-05-06 13:39 | 21.09241 | 112.24101 | 32956 ft | 527 kts | 68° |
| 2026-05-06 13:40 | 21.11689 | 112.31452 | 32956 ft | 527 kts | 68° |
| 2026-05-06 13:40 | 21.14151 | 112.38866 | 32476 ft | 518 kts | 68° |
| 2026-05-06 13:40 | 21.15355 | 112.42492 | 31933 ft | 514 kts | 68° |
| 2026-05-06 13:41 | 21.16550 | 112.46097 | 31352 ft | 512 kts | 68° |
| 2026-05-06 13:41 | 21.17720 | 112.49626 | 30779 ft | 509 kts | 68° |
| 2026-05-06 13:41 | 21.18905 | 112.53203 | 30203 ft | 507 kts | 68° |
| 2026-05-06 13:41 | 21.20081 | 112.56756 | 29561 ft | 504 kts | 69° |
| 2026-05-06 13:42 | 21.21271 | 112.60353 | 28897 ft | 506 kts | 69° |
| 2026-05-06 13:42 | 21.22452 | 112.63924 | 28266 ft | 509 kts | 69° |
| 2026-05-06 13:42 | 21.23619 | 112.67455 | 27645 ft | 508 kts | 69° |
| 2026-05-06 13:42 | 21.24793 | 112.71016 | 27028 ft | 505 kts | 69° |
| 2026-05-06 13:43 | 21.25959 | 112.74556 | 26417 ft | 501 kts | 69° |
| 2026-05-06 13:43 | 21.27117 | 112.78077 | 25832 ft | 498 kts | 69° |
| 2026-05-06 13:43 | 21.28265 | 112.81568 | 25260 ft | 495 kts | 70° |
| 2026-05-06 13:43 | 21.29403 | 112.85034 | 24700 ft | 491 kts | 70° |
| 2026-05-06 13:44 | 21.30536 | 112.88485 | 24140 ft | 488 kts | 70° |
| 2026-05-06 13:44 | 21.31662 | 112.91918 | 23586 ft | 485 kts | 70° |
| 2026-05-06 13:44 | 21.32779 | 112.95322 | 22951 ft | 482 kts | 70° |
| 2026-05-06 13:44 | 21.33890 | 112.98713 | 22331 ft | 479 kts | 70° |
| 2026-05-06 13:45 | 21.34991 | 113.02077 | 21815 ft | 474 kts | 70° |
| 2026-05-06 13:45 | 21.37147 | 113.08672 | 20843 ft | 462 kts | 70° |
| 2026-05-06 13:45 | 21.38208 | 113.11917 | 20365 ft | 457 kts | 70° |
| 2026-05-06 13:46 | 21.39258 | 113.15121 | 19886 ft | 452 kts | 70° |
| 2026-05-06 13:46 | 21.40293 | 113.18289 | 19439 ft | 447 kts | 70° |
| 2026-05-06 13:46 | 21.41317 | 113.21429 | 18985 ft | 443 kts | 70° |
| 2026-05-06 13:46 | 21.42325 | 113.24519 | 18750 ft | 432 kts | 70° |
| 2026-05-06 13:47 | 21.43303 | 113.27525 | 18548 ft | 421 kts | 70° |
| 2026-05-06 13:47 | 21.44255 | 113.30451 | 18380 ft | 410 kts | 70° |
| 2026-05-06 13:47 | 21.45183 | 113.33307 | 18199 ft | 399 kts | 70° |
| 2026-05-06 13:47 | 21.46089 | 113.36096 | 17886 ft | 392 kts | 70° |
| 2026-05-06 13:48 | 21.46983 | 113.38853 | 17457 ft | 389 kts | 70° |
| 2026-05-06 13:48 | 21.47872 | 113.41593 | 17026 ft | 386 kts | 70° |
| 2026-05-06 13:48 | 21.48753 | 113.44309 | 16596 ft | 384 kts | 70° |
| 2026-05-06 13:48 | 21.49629 | 113.47011 | 16165 ft | 381 kts | 70° |
| 2026-05-06 13:49 | 21.50496 | 113.49689 | 15788 ft | 378 kts | 70° |
| 2026-05-06 13:49 | 21.51357 | 113.52349 | 15391 ft | 375 kts | 70° |
| 2026-05-06 13:49 | 21.52215 | 113.54989 | 14969 ft | 373 kts | 68° |
| 2026-05-06 13:49 | 21.53337 | 113.57486 | 14574 ft | 368 kts | 53° |
| 2026-05-06 13:50 | 21.54462 | 113.58835 | 14277 ft | 364 kts | 37° |
| 2026-05-06 13:50 | 21.56624 | 113.60157 | 13888 ft | 356 kts | 17° |
| 2026-05-06 13:50 | 21.58971 | 113.60939 | 13536 ft | 351 kts | 14° |
| 2026-05-06 13:50 | 21.61303 | 113.61677 | 13087 ft | 349 kts | 14° |
| 2026-05-06 13:51 | 21.63630 | 113.62416 | 12638 ft | 347 kts | 14° |
| 2026-05-06 13:51 | 21.65941 | 113.63155 | 12208 ft | 346 kts | 14° |
| 2026-05-06 13:51 | 21.68245 | 113.63889 | 11760 ft | 345 kts | 14° |
| 2026-05-06 13:51 | 21.70540 | 113.64617 | 11332 ft | 343 kts | 14° |
| 2026-05-06 13:52 | 21.72826 | 113.65336 | 10905 ft | 341 kts | 14° |
| 2026-05-06 13:52 | 21.75096 | 113.66050 | 10497 ft | 340 kts | 14° |
| 2026-05-06 13:52 | 21.77376 | 113.66770 | 10088 ft | 338 kts | 14° |
| 2026-05-06 13:52 | 21.79632 | 113.67479 | 9667 ft | 337 kts | 14° |
| 2026-05-06 13:53 | 21.81870 | 113.68196 | 9233 ft | 335 kts | 15° |
| 2026-05-06 13:53 | 21.84098 | 113.68921 | 8754 ft | 334 kts | 15° |
| 2026-05-06 13:53 | 21.86305 | 113.69640 | 8307 ft | 332 kts | 15° |
| 2026-05-06 13:53 | 21.88516 | 113.70356 | 7840 ft | 331 kts | 15° |
| 2026-05-06 13:54 | 21.90714 | 113.71068 | 7438 ft | 329 kts | 15° |
| 2026-05-06 13:54 | 21.92917 | 113.71781 | 7029 ft | 326 kts | 16° |
| 2026-05-06 13:54 | 21.95086 | 113.72487 | 6588 ft | 325 kts | 16° |
| 2026-05-06 13:54 | 21.97249 | 113.73191 | 6185 ft | 323 kts | 16° |
| 2026-05-06 13:55 | 21.99385 | 113.73884 | 5769 ft | 320 kts | 17° |
| 2026-05-06 13:55 | 22.01506 | 113.74574 | 5371 ft | 317 kts | 17° |
| 2026-05-06 13:55 | 22.03611 | 113.75258 | 4990 ft | 314 kts | 17° |
| 2026-05-06 13:55 | 22.05664 | 113.75925 | 4641 ft | 311 kts | 17° |
| 2026-05-06 13:56 | 22.07700 | 113.76585 | 4452 ft | 300 kts | 17° |
| 2026-05-06 13:56 | 22.09672 | 113.77192 | 4238 ft | 290 kts | 12° |
| 2026-05-06 13:56 | 22.11649 | 113.77128 | 3994 ft | 281 kts | 342° |
| 2026-05-06 13:56 | 22.13408 | 113.76335 | 3729 ft | 267 kts | 334° |
| 2026-05-06 13:57 | 22.15040 | 113.75464 | 3488 ft | 254 kts | 333° |
| 2026-05-06 13:57 | 22.16595 | 113.74636 | 3383 ft | 245 kts | 333° |
| 2026-05-06 13:57 | 22.18129 | 113.73840 | 3048 ft | 243 kts | 334° |
| 2026-05-06 13:57 | 22.19717 | 113.73284 | 2688 ft | 239 kts | 1° |
| 2026-05-06 13:58 | 22.21249 | 113.73700 | 2520 ft | 220 kts | 29° |
| 2026-05-06 13:58 | 22.22542 | 113.74462 | 2371 ft | 205 kts | 33° |
| 2026-05-06 13:58 | 22.23744 | 113.75200 | 2187 ft | 194 kts | 33° |
| 2026-05-06 13:58 | 22.24879 | 113.75950 | 2019 ft | 188 kts | 46° |
| 2026-05-06 13:59 | 22.25557 | 113.77113 | 2023 ft | 184 kts | 71° |
| 2026-05-06 13:59 | 22.25986 | 113.78417 | 2017 ft | 184 kts | 75° |
| 2026-05-06 13:59 | 22.26388 | 113.79731 | 1928 ft | 184 kts | 75° |
| 2026-05-06 13:59 | 22.26793 | 113.81035 | 1722 ft | 182 kts | 74° |
| 2026-05-06 14:00 | 22.27193 | 113.82303 | 1478 ft | 173 kts | 74° |
| 2026-05-06 14:00 | 22.27578 | 113.83485 | 1254 ft | 159 kts | 74° |
| 2026-05-06 14:00 | 22.27932 | 113.84584 | 1069 ft | 153 kts | 74° |
| 2026-05-06 14:00 | 22.28279 | 113.85664 | 907 ft | 151 kts | 73° |
| 2026-05-06 14:01 | 22.28629 | 113.86742 | 727 ft | 151 kts | 74° |
| 2026-05-06 14:01 | 22.28970 | 113.87808 | 489 ft | 150 kts | 72° |
| 2026-05-06 14:01 | 22.29315 | 113.88861 | 269 ft | 147 kts | 71° |
| 2026-05-06 14:01 | 22.29654 | 113.89896 | 85 ft | 145 kts | 72° |
| 2026-05-06 14:02 | 22.29963 | 113.90862 | 41 ft | 112 kts | 70° |
| 2026-05-06 14:02 | 22.30160 | 113.91467 | 44 ft | 67 kts | 71° |
| 2026-05-06 14:02 | 22.30299 | 113.91880 | 44 ft | 48 kts | 64° |
| 2026-05-06 14:02 | 22.30472 | 113.92098 | 44 ft | 31 kts | 40° |
| 2026-05-06 14:03 | 22.30594 | 113.92243 | 44 ft | 25 kts | 66° |
| 2026-05-06 14:03 | 22.30653 | 113.92425 | 44 ft | 26 kts | 71° |
| 2026-05-06 14:03 | 22.30714 | 113.92616 | 44 ft | 27 kts | 70° |
| 2026-05-06 14:03 | 22.30777 | 113.92807 | 44 ft | 28 kts | 70° |
| 2026-05-06 14:04 | 22.30838 | 113.92997 | 44 ft | 25 kts | 71° |
| 2026-05-06 14:04 | 22.30882 | 113.93115 | 44 ft | 13 kts | 73° |
| 2026-05-06 14:04 | 22.30950 | 113.93172 | 44 ft | 15 kts | 348° |
| 2026-05-06 14:04 | 22.31061 | 113.93128 | 44 ft | 19 kts | 340° |
| 2026-05-06 14:05 | 22.31145 | 113.93097 | 44 ft | 11 kts | 341° |
| 2026-05-06 14:05 | 22.31157 | 113.93092 | 44 ft | 5 kts | 341° |
| 2026-05-06 14:06 | 22.31160 | 113.93091 | 44 ft | 0 kts | 341° |
| 2026-05-06 14:06 | 22.31169 | 113.93088 | 44 ft | 3 kts | 341° |
| 2026-05-06 14:06 | 22.31198 | 113.93078 | 44 ft | 6 kts | 344° |
| 2026-05-06 14:06 | 22.31250 | 113.93062 | 44 ft | 9 kts | 344° |
| 2026-05-06 14:07 | 22.31281 | 113.93051 | 44 ft | 3 kts | 341° |
| 2026-05-06 14:07 | 22.31299 | 113.93045 | 44 ft | 2 kts | 340° |
| 2026-05-06 14:07 | 22.31307 | 113.93042 | 44 ft | 1 kts | 340° |
| 2026-05-06 14:07 | 22.31316 | 113.93038 | 44 ft | 1 kts | 341° |
| 2026-05-06 14:08 | 22.31319 | 113.93037 | 44 ft | 0 kts | 341° |
| 2026-05-06 14:08 | 22.31320 | 113.93037 | 44 ft | 0 kts | 341° |